createdAt,value
2017-11-12T00:00:22.992Z,247.50
2017-11-12T00:01:23.041Z,292.50
2017-11-12T00:02:23.091Z,225.00
2017-11-12T00:03:22.996Z,225.00
2017-11-12T00:04:23.091Z,247.50
2017-11-12T00:05:23.094Z,292.50
2017-11-12T00:06:23.099Z,247.50
2017-11-12T00:07:23.078Z,247.50
2017-11-12T00:08:23.132Z,225.00
2017-11-12T00:09:23.056Z,270.00
2017-11-12T00:10:23.104Z,247.50
2017-11-12T00:11:23.105Z,270.00
2017-11-12T00:12:23.079Z,247.50
2017-11-12T00:13:23.137Z,270.00
2017-11-12T00:14:23.032Z,225.00
2017-11-12T00:15:23.053Z,247.50
2017-11-12T00:16:23.053Z,247.50
2017-11-12T00:17:23.153Z,292.50
2017-11-12T00:18:23.147Z,270.00
2017-11-12T00:19:23.062Z,247.50
2017-11-12T00:20:23.108Z,225.00
2017-11-12T00:21:23.156Z,247.50
2017-11-12T00:22:23.130Z,270.00
2017-11-12T00:23:23.024Z,270.00
2017-11-12T00:24:23.091Z,270.00
2017-11-12T00:25:23.110Z,292.50
2017-11-12T00:26:23.050Z,270.00
2017-11-12T00:27:23.066Z,270.00
2017-11-12T00:28:23.109Z,225.00
2017-11-12T00:29:23.115Z,315.00
2017-11-12T00:30:23.085Z,247.50
2017-11-12T00:31:23.126Z,270.00
2017-11-12T00:32:23.126Z,225.00
2017-11-12T00:33:23.129Z,292.50
2017-11-12T00:34:23.170Z,292.50
2017-11-12T00:35:23.129Z,315.00
2017-11-12T00:36:23.091Z,292.50
2017-11-12T00:37:23.128Z,315.00
2017-11-12T00:38:23.115Z,315.00
2017-11-12T00:39:23.027Z,270.00
2017-11-12T00:40:23.145Z,270.00
2017-11-12T00:41:23.146Z,315.00
2017-11-12T00:42:23.081Z,315.00
2017-11-12T00:43:23.126Z,202.50
2017-11-12T00:44:23.120Z,270.00
2017-11-12T00:45:23.153Z,180.00
2017-11-12T00:46:23.170Z,247.50
2017-11-12T00:47:23.041Z,270.00
2017-11-12T00:48:23.078Z,247.50
2017-11-12T00:49:23.104Z,270.00
2017-11-12T00:50:23.078Z,225.00
2017-11-12T00:51:23.165Z,270.00
2017-11-12T00:52:23.148Z,247.50
2017-11-12T00:53:23.125Z,292.50
2017-11-12T00:54:23.078Z,270.00
2017-11-12T00:55:23.063Z,247.50
2017-11-12T00:56:23.047Z,315.00
2017-11-12T00:57:23.063Z,315.00
2017-11-12T00:58:23.044Z,247.50
2017-11-12T00:59:23.135Z,247.50
2017-11-12T01:00:23.141Z,337.50
2017-11-12T01:01:23.107Z,292.50
2017-11-12T01:02:23.038Z,292.50
2017-11-12T01:03:23.164Z,292.50
2017-11-12T01:04:23.169Z,135.00
2017-11-12T01:05:23.134Z,180.00
2017-11-12T01:06:23.052Z,202.50
2017-11-12T01:07:23.059Z,180.00
2017-11-12T01:08:23.049Z,157.50
2017-11-12T01:09:23.041Z,292.50
2017-11-12T01:10:23.043Z,225.00
2017-11-12T01:11:23.072Z,247.50
2017-11-12T01:12:23.112Z,202.50
2017-11-12T01:13:23.173Z,135.00
2017-11-12T01:14:23.082Z,45.00
2017-11-12T01:15:23.087Z,45.00
2017-11-12T01:16:23.190Z,90.00
2017-11-12T01:17:23.162Z,45.00
2017-11-12T01:18:23.192Z,45.00
2017-11-12T01:19:23.192Z,90.00
2017-11-12T01:20:23.201Z,67.50
2017-11-12T01:21:23.193Z,90.00
2017-11-12T01:22:23.132Z,202.50
2017-11-12T01:23:23.196Z,45.00
2017-11-12T01:24:23.195Z,45.00
2017-11-12T01:25:23.128Z,67.50
2017-11-12T01:26:23.150Z,45.00
2017-11-12T01:27:23.099Z,45.00
2017-11-12T01:28:23.146Z,135.00
2017-11-12T01:29:23.125Z,247.50
2017-11-12T01:30:23.147Z,180.00
2017-11-12T01:31:23.103Z,202.50
2017-11-12T01:32:23.155Z,180.00
2017-11-12T01:33:23.064Z,157.50
2017-11-12T01:34:23.085Z,202.50
2017-11-12T01:35:23.108Z,135.00
2017-11-12T01:36:23.083Z,135.00
2017-11-12T01:37:23.190Z,180.00
2017-11-12T01:38:23.192Z,157.50
2017-11-12T01:39:23.112Z,270.00
2017-11-12T01:40:23.197Z,292.50
2017-11-12T01:41:23.196Z,45.00
2017-11-12T01:42:23.161Z,22.50
2017-11-12T01:43:23.116Z,90.00
2017-11-12T01:44:23.120Z,247.50
2017-11-12T01:45:23.159Z,315.00
2017-11-12T01:46:23.145Z,157.50
2017-11-12T01:47:23.208Z,135.00
2017-11-12T01:48:23.145Z,225.00
2017-11-12T01:49:23.209Z,90.00
2017-11-12T01:50:23.213Z,225.00
2017-11-12T01:51:23.215Z,202.50
2017-11-12T01:52:23.212Z,202.50
2017-11-12T01:53:23.098Z,157.50
2017-11-12T01:54:23.150Z,67.50
2017-11-12T01:55:23.219Z,247.50
2017-11-12T01:56:23.214Z,225.00
2017-11-12T01:57:23.147Z,337.50
2017-11-12T01:58:23.217Z,157.50
2017-11-12T01:59:23.177Z,67.50
2017-11-12T02:00:23.234Z,45.00
2017-11-12T02:01:23.153Z,202.50
2017-11-12T02:02:23.220Z,45.00
2017-11-12T02:03:23.154Z,67.50
2017-11-12T02:04:23.219Z,90.00
2017-11-12T02:05:23.218Z,90.00
2017-11-12T02:06:23.151Z,90.00
2017-11-12T02:07:23.153Z,67.50
2017-11-12T02:08:23.221Z,90.00
2017-11-12T02:09:23.154Z,112.50
2017-11-12T02:10:23.222Z,90.00
2017-11-12T02:12:23.223Z,90.00
2017-11-12T02:13:23.224Z,90.00
2017-11-12T02:14:23.158Z,90.00
2017-11-12T02:15:23.228Z,90.00
2017-11-12T02:16:23.158Z,90.00
2017-11-12T02:17:23.131Z,45.00
2017-11-12T02:18:23.098Z,135.00
2017-11-12T02:19:23.075Z,202.50
2017-11-12T02:20:23.089Z,180.00
2017-11-12T02:21:23.174Z,180.00
2017-11-12T02:22:23.129Z,67.50
2017-11-12T02:23:23.130Z,22.50
2017-11-12T02:24:23.126Z,45.00
2017-11-12T02:25:23.155Z,22.50
2017-11-12T02:26:23.169Z,45.00
2017-11-12T02:27:23.239Z,67.50
2017-11-12T02:28:23.168Z,67.50
2017-11-12T02:29:23.234Z,67.50
2017-11-12T02:30:23.175Z,90.00
2017-11-12T02:31:23.243Z,67.50
2017-11-12T02:32:23.186Z,67.50
2017-11-12T02:33:23.170Z,90.00
2017-11-12T02:34:23.173Z,67.50
2017-11-12T02:35:23.237Z,90.00
2017-11-12T02:36:23.128Z,67.50
2017-11-12T02:37:23.204Z,45.00
2017-11-12T02:38:23.164Z,45.00
2017-11-12T02:39:23.231Z,67.50
2017-11-12T02:40:23.109Z,90.00
2017-11-12T02:41:23.178Z,135.00
2017-11-12T02:42:23.129Z,112.50
2017-11-12T02:43:23.152Z,45.00
2017-11-12T02:44:23.131Z,67.50
2017-11-12T02:45:23.110Z,112.50
2017-11-12T02:46:23.146Z,90.00
2017-11-12T02:47:23.097Z,67.50
2017-11-12T02:48:23.261Z,90.00
2017-11-12T02:49:23.192Z,67.50
2017-11-12T02:50:23.149Z,67.50
2017-11-12T02:51:23.148Z,67.50
2017-11-12T02:52:23.263Z,67.50
2017-11-12T02:53:23.195Z,67.50
2017-11-12T02:54:23.298Z,67.50
2017-11-12T02:55:23.148Z,67.50
2017-11-12T02:56:23.198Z,67.50
2017-11-12T02:57:23.250Z,67.50
2017-11-12T02:58:23.189Z,67.50
2017-11-12T02:59:23.258Z,67.50
2017-11-12T03:00:23.192Z,67.50
2017-11-12T03:01:23.288Z,67.50
2017-11-12T03:02:23.254Z,67.50
2017-11-12T03:03:23.186Z,45.00
2017-11-12T03:04:23.192Z,45.00
2017-11-12T03:05:23.258Z,45.00
2017-11-12T03:06:23.190Z,22.50
2017-11-12T03:07:23.256Z,22.50
2017-11-12T03:08:23.191Z,45.00
2017-11-12T03:09:23.259Z,67.50
2017-11-12T03:10:23.195Z,270.00
2017-11-12T03:11:23.259Z,45.00
2017-11-12T03:12:23.199Z,45.00
2017-11-12T03:13:23.260Z,67.50
2017-11-12T03:14:23.194Z,45.00
2017-11-12T03:15:23.262Z,112.50
2017-11-12T03:16:23.300Z,315.00
2017-11-12T03:17:23.263Z,135.00
2017-11-12T03:18:23.201Z,157.50
2017-11-12T03:19:23.199Z,180.00
2017-11-12T03:20:23.269Z,157.50
2017-11-12T03:21:23.265Z,157.50
2017-11-12T03:22:23.268Z,90.00
2017-11-12T03:23:23.205Z,112.50
2017-11-12T03:24:23.206Z,90.00
2017-11-12T03:25:23.150Z,112.50
2017-11-12T03:26:23.269Z,135.00
2017-11-12T03:27:23.206Z,202.50
2017-11-12T03:28:23.272Z,112.50
2017-11-12T03:29:23.269Z,135.00
2017-11-12T03:30:23.210Z,45.00
2017-11-12T03:31:23.274Z,22.50
2017-11-12T03:32:23.207Z,45.00
2017-11-12T03:33:23.271Z,45.00
2017-11-12T03:34:23.211Z,67.50
2017-11-12T03:35:23.276Z,22.50
2017-11-12T03:36:23.267Z,90.00
2017-11-12T03:37:23.230Z,0.00
2017-11-12T03:38:23.160Z,45.00
2017-11-12T03:39:23.177Z,45.00
2017-11-12T03:40:23.185Z,22.50
2017-11-12T03:41:23.144Z,157.50
2017-11-12T03:42:23.187Z,45.00
2017-11-12T03:43:23.212Z,22.50
2017-11-12T03:44:23.264Z,22.50
2017-11-12T03:45:23.235Z,45.00
2017-11-12T03:46:23.301Z,45.00
2017-11-12T03:47:23.216Z,45.00
2017-11-12T03:48:23.282Z,45.00
2017-11-12T03:49:23.218Z,22.50
2017-11-12T03:50:23.217Z,22.50
2017-11-12T03:51:23.283Z,45.00
2017-11-12T03:52:23.290Z,0.00
2017-11-12T03:53:23.235Z,22.50
2017-11-12T03:54:23.284Z,22.50
2017-11-12T03:55:23.221Z,22.50
2017-11-12T03:56:23.288Z,67.50
2017-11-12T03:57:23.223Z,67.50
2017-11-12T03:58:23.295Z,45.00
2017-11-12T03:59:23.221Z,135.00
2017-11-12T04:00:23.245Z,157.50
2017-11-12T04:01:23.290Z,135.00
2017-11-12T04:02:23.224Z,67.50
2017-11-12T04:03:23.291Z,45.00
2017-11-12T04:04:23.234Z,67.50
2017-11-12T04:05:23.291Z,45.00
2017-11-12T04:06:23.226Z,315.00
2017-11-12T04:07:23.294Z,45.00
2017-11-12T04:08:23.222Z,22.50
2017-11-12T04:09:23.298Z,315.00
2017-11-12T04:10:23.231Z,45.00
2017-11-12T04:11:23.303Z,22.50
2017-11-12T04:12:23.233Z,22.50
2017-11-12T04:13:23.234Z,22.50
2017-11-12T04:14:23.300Z,67.50
2017-11-12T04:15:23.227Z,67.50
2017-11-12T04:16:23.180Z,67.50
2017-11-12T04:17:23.248Z,67.50
2017-11-12T04:18:23.179Z,45.00
2017-11-12T04:19:23.217Z,135.00
2017-11-12T04:20:23.261Z,157.50
2017-11-12T04:21:23.215Z,90.00
2017-11-12T04:22:23.233Z,90.00
2017-11-12T04:23:23.185Z,90.00
2017-11-12T04:24:23.187Z,90.00
2017-11-12T04:25:23.278Z,90.00
2017-11-12T04:26:23.303Z,67.50
2017-11-12T04:27:23.239Z,45.00
2017-11-12T04:28:23.308Z,135.00
2017-11-12T04:29:23.246Z,180.00
2017-11-12T04:30:23.310Z,157.50
2017-11-12T04:31:23.244Z,157.50
2017-11-12T04:32:23.322Z,157.50
2017-11-12T04:33:23.310Z,90.00
2017-11-12T04:34:23.242Z,112.50
2017-11-12T04:35:23.340Z,292.50
2017-11-12T04:36:23.400Z,225.00
2017-11-12T04:37:23.313Z,180.00
2017-11-12T04:38:23.244Z,180.00
2017-11-12T04:39:23.315Z,157.50
2017-11-12T04:40:23.250Z,90.00
2017-11-12T04:41:23.316Z,90.00
2017-11-12T04:42:23.246Z,157.50
2017-11-12T04:43:23.252Z,90.00
2017-11-12T04:44:23.318Z,112.50
2017-11-12T04:45:23.250Z,67.50
2017-11-12T04:46:23.250Z,67.50
2017-11-12T04:47:23.319Z,112.50
2017-11-12T04:48:23.320Z,202.50
2017-11-12T04:49:23.248Z,90.00
2017-11-12T04:50:23.256Z,90.00
2017-11-12T04:51:23.319Z,180.00
2017-11-12T04:52:23.250Z,135.00
2017-11-12T04:53:23.322Z,90.00
2017-11-12T04:54:23.324Z,90.00
2017-11-12T04:55:23.253Z,90.00
2017-11-12T04:56:23.323Z,112.50
2017-11-12T04:57:23.264Z,112.50
2017-11-12T04:58:23.258Z,112.50
2017-11-12T04:59:23.257Z,90.00
2017-11-12T05:00:23.327Z,135.00
2017-11-12T05:01:23.259Z,67.50
2017-11-12T05:02:23.299Z,112.50
2017-11-12T05:03:23.257Z,112.50
2017-11-12T05:04:23.331Z,90.00
2017-11-12T05:05:23.332Z,67.50
2017-11-12T05:06:23.263Z,67.50
2017-11-12T05:07:23.305Z,67.50
2017-11-12T05:08:23.261Z,135.00
2017-11-12T05:09:23.262Z,135.00
2017-11-12T05:10:23.281Z,90.00
2017-11-12T05:11:23.279Z,90.00
2017-11-12T05:12:23.301Z,90.00
2017-11-12T05:13:23.313Z,90.00
2017-11-12T05:14:23.225Z,90.00
2017-11-12T05:15:23.285Z,90.00
2017-11-12T05:16:23.230Z,90.00
2017-11-12T05:17:23.326Z,135.00
2017-11-12T05:18:23.245Z,90.00
2017-11-12T05:19:23.203Z,112.50
2017-11-12T05:20:23.271Z,90.00
2017-11-12T05:21:23.240Z,90.00
2017-11-12T05:22:23.208Z,135.00
2017-11-12T05:23:23.240Z,225.00
2017-11-12T05:24:23.324Z,202.50
2017-11-12T05:25:23.331Z,180.00
2017-11-12T05:26:23.275Z,202.50
2017-11-12T05:27:23.354Z,90.00
2017-11-12T05:28:23.276Z,157.50
2017-11-12T05:29:23.342Z,202.50
2017-11-12T05:30:23.281Z,112.50
2017-11-12T05:31:23.346Z,135.00
2017-11-12T05:32:23.279Z,90.00
2017-11-12T05:33:23.353Z,90.00
2017-11-12T05:34:23.278Z,90.00
2017-11-12T05:35:23.344Z,90.00
2017-11-12T05:36:23.346Z,90.00
2017-11-12T05:37:23.285Z,90.00
2017-11-12T05:38:23.349Z,90.00
2017-11-12T05:39:23.288Z,67.50
2017-11-12T05:40:23.349Z,90.00
2017-11-12T05:41:23.286Z,90.00
2017-11-12T05:42:23.228Z,90.00
2017-11-12T05:43:23.289Z,90.00
2017-11-12T05:44:23.352Z,67.50
2017-11-12T05:45:23.290Z,67.50
2017-11-12T05:46:23.353Z,67.50
2017-11-12T05:47:23.290Z,90.00
2017-11-12T05:48:23.368Z,135.00
2017-11-12T05:49:23.354Z,157.50
2017-11-12T05:50:23.288Z,112.50
2017-11-12T05:51:23.356Z,112.50
2017-11-12T05:52:23.295Z,157.50
2017-11-12T05:53:23.358Z,90.00
2017-11-12T05:54:23.293Z,247.50
2017-11-12T05:55:23.460Z,135.00
2017-11-12T05:56:23.358Z,157.50
2017-11-12T05:57:23.287Z,180.00
2017-11-12T05:58:23.294Z,135.00
2017-11-12T05:59:23.360Z,90.00
2017-11-12T06:00:23.367Z,67.50
2017-11-12T06:01:23.302Z,247.50
2017-11-12T06:02:23.367Z,67.50
2017-11-12T06:03:23.332Z,112.50
2017-11-12T06:04:23.402Z,180.00
2017-11-12T06:05:23.296Z,67.50
2017-11-12T06:06:23.396Z,135.00
2017-11-12T06:07:23.330Z,112.50
2017-11-12T06:08:23.370Z,90.00
2017-11-12T06:09:23.303Z,90.00
2017-11-12T06:10:23.369Z,90.00
2017-11-12T06:11:23.302Z,90.00
2017-11-12T06:12:23.265Z,90.00
2017-11-12T06:13:23.375Z,90.00
2017-11-12T06:14:23.340Z,90.00
2017-11-12T06:15:23.369Z,90.00
2017-11-12T06:16:23.315Z,90.00
2017-11-12T06:17:23.394Z,112.50
2017-11-12T06:18:23.238Z,90.00
2017-11-12T06:19:23.306Z,67.50
2017-11-12T06:20:23.237Z,112.50
2017-11-12T06:21:23.269Z,90.00
2017-11-12T06:22:23.306Z,90.00
2017-11-12T06:23:23.297Z,90.00
2017-11-12T06:24:23.269Z,112.50
2017-11-12T06:25:23.274Z,90.00
2017-11-12T06:26:23.269Z,90.00
2017-11-12T06:27:23.309Z,112.50
2017-11-12T06:28:23.383Z,90.00
2017-11-12T06:29:23.379Z,90.00
2017-11-12T06:30:23.314Z,112.50
2017-11-12T06:31:23.265Z,90.00
2017-11-12T06:32:23.314Z,112.50
2017-11-12T06:33:23.424Z,90.00
2017-11-12T06:34:23.384Z,112.50
2017-11-12T06:35:23.321Z,90.00
2017-11-12T06:36:23.385Z,112.50
2017-11-12T06:37:23.384Z,135.00
2017-11-12T06:38:23.314Z,112.50
2017-11-12T06:39:23.387Z,112.50
2017-11-12T06:40:23.324Z,90.00
2017-11-12T06:41:23.320Z,90.00
2017-11-12T06:42:23.385Z,90.00
2017-11-12T06:43:23.324Z,67.50
2017-11-12T06:44:23.388Z,67.50
2017-11-12T06:45:23.317Z,90.00
2017-11-12T06:46:23.344Z,67.50
2017-11-12T06:47:23.388Z,90.00
2017-11-12T06:48:23.326Z,90.00
2017-11-12T06:49:23.398Z,112.50
2017-11-12T06:50:23.393Z,90.00
2017-11-12T06:51:23.390Z,90.00
2017-11-12T06:52:23.336Z,90.00
2017-11-12T06:53:23.394Z,112.50
2017-11-12T06:54:23.327Z,112.50
2017-11-12T06:55:23.393Z,90.00
2017-11-12T06:56:23.331Z,90.00
2017-11-12T06:57:23.330Z,90.00
2017-11-12T06:58:23.397Z,112.50
2017-11-12T06:59:23.397Z,90.00
2017-11-12T07:00:23.367Z,90.00
2017-11-12T07:01:23.338Z,45.00
2017-11-12T07:02:23.396Z,67.50
2017-11-12T07:03:23.329Z,90.00
2017-11-12T07:04:23.399Z,90.00
2017-11-12T07:05:23.337Z,90.00
2017-11-12T07:06:23.422Z,90.00
2017-11-12T07:07:23.305Z,67.50
2017-11-12T07:08:23.531Z,90.00
2017-11-12T07:09:23.342Z,112.50
2017-11-12T07:10:23.280Z,90.00
2017-11-12T07:11:23.371Z,90.00
2017-11-12T07:12:23.396Z,90.00
2017-11-12T07:13:23.347Z,90.00
2017-11-12T07:14:23.399Z,90.00
2017-11-12T07:15:23.389Z,135.00
2017-11-12T07:16:23.375Z,112.50
2017-11-12T07:17:23.329Z,112.50
2017-11-12T07:18:23.371Z,135.00
2017-11-12T07:19:23.310Z,112.50
2017-11-12T07:20:23.278Z,135.00
2017-11-12T07:21:23.377Z,135.00
2017-11-12T07:22:23.401Z,135.00
2017-11-12T07:23:23.334Z,112.50
2017-11-12T07:24:23.359Z,90.00
2017-11-12T07:25:23.323Z,135.00
2017-11-12T07:26:23.314Z,112.50
2017-11-12T07:27:23.412Z,112.50
2017-11-12T07:28:23.350Z,135.00
2017-11-12T07:29:23.413Z,112.50
2017-11-12T07:30:23.349Z,135.00
2017-11-12T07:31:23.420Z,112.50
2017-11-12T07:32:23.344Z,90.00
2017-11-12T07:33:23.419Z,90.00
2017-11-12T07:34:23.367Z,90.00
2017-11-12T07:35:23.416Z,90.00
2017-11-12T07:36:23.343Z,90.00
2017-11-12T07:37:23.330Z,112.50
2017-11-12T07:38:23.403Z,90.00
2017-11-12T07:39:23.331Z,90.00
2017-11-12T07:40:23.409Z,112.50
2017-11-12T07:41:23.352Z,112.50
2017-11-12T07:42:23.328Z,90.00
2017-11-12T07:43:23.372Z,112.50
2017-11-12T07:44:23.364Z,135.00
2017-11-12T07:45:23.301Z,135.00
2017-11-12T07:46:23.331Z,135.00
2017-11-12T07:47:23.323Z,112.50
2017-11-12T07:48:23.325Z,135.00
2017-11-12T07:49:23.410Z,112.50
2017-11-12T07:50:23.336Z,135.00
2017-11-12T07:51:23.425Z,90.00
2017-11-12T07:52:23.328Z,135.00
2017-11-12T07:53:23.338Z,112.50
2017-11-12T07:54:23.311Z,90.00
2017-11-12T07:55:23.394Z,67.50
2017-11-12T07:56:23.314Z,90.00
2017-11-12T07:57:23.432Z,90.00
2017-11-12T07:58:23.361Z,135.00
2017-11-12T07:59:23.433Z,90.00
2017-11-12T08:00:23.362Z,90.00
2017-11-12T08:01:23.363Z,157.50
2017-11-12T08:02:23.435Z,112.50
2017-11-12T08:03:23.367Z,112.50
2017-11-12T08:04:23.436Z,112.50
2017-11-12T08:05:23.408Z,90.00
2017-11-12T08:06:23.475Z,90.00
2017-11-12T08:07:23.577Z,112.50
2017-11-12T08:08:23.363Z,90.00
2017-11-12T08:09:23.573Z,135.00
2017-11-12T08:10:23.375Z,90.00
2017-11-12T08:11:23.437Z,112.50
2017-11-12T08:12:23.408Z,90.00
2017-11-12T08:13:23.373Z,112.50
2017-11-12T08:14:23.461Z,135.00
2017-11-12T08:15:23.442Z,135.00
2017-11-12T08:16:23.442Z,112.50
2017-11-12T08:17:23.374Z,90.00
2017-11-12T08:18:23.449Z,90.00
2017-11-12T08:19:23.375Z,90.00
2017-11-12T08:20:23.444Z,90.00
2017-11-12T08:21:23.375Z,90.00
2017-11-12T08:22:23.446Z,90.00
2017-11-12T08:23:23.380Z,90.00
2017-11-12T08:24:23.447Z,90.00
2017-11-12T08:25:23.378Z,67.50
2017-11-12T08:26:23.377Z,90.00
2017-11-12T08:27:23.448Z,90.00
2017-11-12T08:28:23.379Z,90.00
2017-11-12T08:29:23.450Z,90.00
2017-11-12T08:30:23.376Z,90.00
2017-11-12T08:31:23.449Z,90.00
2017-11-12T08:32:23.380Z,90.00
2017-11-12T08:33:23.449Z,90.00
2017-11-12T08:34:23.423Z,90.00
2017-11-12T08:35:23.386Z,112.50
2017-11-12T08:36:23.453Z,135.00
2017-11-12T08:37:23.305Z,90.00
2017-11-12T08:38:23.344Z,67.50
2017-11-12T08:39:23.405Z,90.00
2017-11-12T08:40:23.352Z,135.00
2017-11-12T08:41:23.352Z,112.50
2017-11-12T08:42:23.307Z,90.00
2017-11-12T08:43:23.367Z,90.00
2017-11-12T08:44:23.314Z,90.00
2017-11-12T08:45:23.311Z,90.00
2017-11-12T08:46:23.406Z,90.00
2017-11-12T08:47:23.320Z,90.00
2017-11-12T08:48:23.388Z,90.00
2017-11-12T08:49:23.442Z,90.00
2017-11-12T08:50:23.423Z,90.00
2017-11-12T08:51:23.388Z,90.00
2017-11-12T08:52:23.327Z,90.00
2017-11-12T08:53:23.411Z,90.00
2017-11-12T08:54:23.353Z,90.00
2017-11-12T08:55:23.445Z,112.50
2017-11-12T08:56:23.352Z,90.00
2017-11-12T08:57:23.364Z,90.00
2017-11-12T08:58:23.314Z,90.00
2017-11-12T08:59:23.411Z,90.00
2017-11-12T09:00:23.413Z,90.00
2017-11-12T09:01:23.364Z,90.00
2017-11-12T09:02:23.366Z,90.00
2017-11-12T09:03:23.413Z,90.00
2017-11-12T09:04:23.324Z,90.00
2017-11-12T09:05:23.418Z,112.50
2017-11-12T09:06:23.366Z,90.00
2017-11-12T09:07:23.411Z,90.00
2017-11-12T09:08:23.436Z,90.00
2017-11-12T09:09:23.475Z,112.50
2017-11-12T09:10:23.402Z,90.00
2017-11-12T09:11:23.471Z,90.00
2017-11-12T09:12:23.404Z,90.00
2017-11-12T09:13:23.359Z,112.50
2017-11-12T09:14:23.402Z,112.50
2017-11-12T09:15:23.412Z,112.50
2017-11-12T09:16:23.479Z,90.00
2017-11-12T09:17:23.465Z,112.50
2017-11-12T09:18:23.390Z,90.00
2017-11-12T09:19:23.437Z,112.50
2017-11-12T09:20:23.431Z,90.00
2017-11-12T09:21:23.444Z,90.00
2017-11-12T09:22:23.410Z,112.50
2017-11-12T09:23:23.447Z,90.00
2017-11-12T09:24:23.371Z,112.50
2017-11-12T09:25:23.370Z,90.00
2017-11-12T09:26:23.463Z,90.00
2017-11-12T09:27:23.412Z,135.00
2017-11-12T09:28:23.486Z,135.00
2017-11-12T09:29:23.549Z,90.00
2017-11-12T09:30:23.485Z,112.50
2017-11-12T09:31:23.488Z,112.50
2017-11-12T09:32:23.417Z,90.00
2017-11-12T09:33:23.487Z,112.50
2017-11-12T09:34:23.413Z,157.50
2017-11-12T09:35:23.496Z,67.50
2017-11-12T09:36:23.414Z,90.00
2017-11-12T09:37:23.492Z,90.00
2017-11-12T09:38:23.422Z,90.00
2017-11-12T09:39:23.493Z,90.00
2017-11-12T09:40:23.424Z,90.00
2017-11-12T09:41:23.493Z,90.00
2017-11-12T09:42:23.433Z,90.00
2017-11-12T09:43:23.494Z,90.00
2017-11-12T09:44:23.423Z,90.00
2017-11-12T09:45:23.496Z,90.00
2017-11-12T09:46:23.429Z,90.00
2017-11-12T09:47:23.426Z,90.00
2017-11-12T09:48:23.497Z,112.50
2017-11-12T09:49:23.402Z,112.50
2017-11-12T09:50:23.445Z,112.50
2017-11-12T09:51:23.404Z,90.00
2017-11-12T09:52:23.444Z,90.00
2017-11-12T09:53:23.442Z,90.00
2017-11-12T09:54:23.509Z,67.50
2017-11-12T09:55:23.429Z,67.50
2017-11-12T09:56:23.498Z,90.00
2017-11-12T09:57:23.506Z,90.00
2017-11-12T09:58:23.438Z,135.00
2017-11-12T09:59:23.507Z,112.50
2017-11-12T10:00:23.437Z,112.50
2017-11-12T10:01:23.506Z,112.50
2017-11-12T10:02:23.439Z,90.00
2017-11-12T10:03:23.505Z,90.00
2017-11-12T10:04:23.508Z,135.00
2017-11-12T10:05:23.447Z,112.50
2017-11-12T10:06:23.509Z,90.00
2017-11-12T10:07:23.508Z,112.50
2017-11-12T10:08:23.462Z,135.00
2017-11-12T10:09:23.510Z,90.00
2017-11-12T10:10:23.448Z,112.50
2017-11-12T10:11:23.515Z,67.50
2017-11-12T10:12:23.450Z,90.00
2017-11-12T10:13:23.513Z,90.00
2017-11-12T10:14:23.505Z,112.50
2017-11-12T10:15:23.513Z,112.50
2017-11-12T10:16:23.449Z,135.00
2017-11-12T10:17:23.514Z,135.00
2017-11-12T10:18:23.444Z,112.50
2017-11-12T10:19:23.514Z,67.50
2017-11-12T10:20:23.452Z,112.50
2017-11-12T10:21:23.547Z,135.00
2017-11-12T10:22:23.448Z,90.00
2017-11-12T10:23:23.526Z,90.00
2017-11-12T10:24:23.451Z,90.00
2017-11-12T10:25:23.521Z,90.00
2017-11-12T10:26:23.467Z,90.00
2017-11-12T10:27:23.470Z,90.00
2017-11-12T10:28:23.505Z,90.00
2017-11-12T10:29:23.519Z,90.00
2017-11-12T10:30:23.519Z,90.00
2017-11-12T10:31:23.493Z,90.00
2017-11-12T10:32:23.492Z,90.00
2017-11-12T10:33:23.522Z,90.00
2017-11-12T10:34:23.564Z,90.00
2017-11-12T10:35:23.424Z,135.00
2017-11-12T10:36:23.491Z,90.00
2017-11-12T10:37:23.476Z,135.00
2017-11-12T10:38:23.458Z,112.50
2017-11-12T10:39:23.542Z,135.00
2017-11-12T10:40:23.463Z,112.50
2017-11-12T10:41:23.534Z,112.50
2017-11-12T10:42:23.528Z,90.00
2017-11-12T10:43:23.535Z,112.50
2017-11-12T10:44:23.461Z,112.50
2017-11-12T10:45:23.533Z,112.50
2017-11-12T10:46:23.482Z,112.50
2017-11-12T10:47:23.483Z,112.50
2017-11-12T10:48:23.481Z,90.00
2017-11-12T10:49:23.415Z,112.50
2017-11-12T10:50:23.420Z,112.50
2017-11-12T10:51:23.481Z,90.00
2017-11-12T10:52:23.463Z,135.00
2017-11-12T10:53:23.504Z,90.00
2017-11-12T10:54:23.524Z,90.00
2017-11-12T10:55:23.418Z,67.50
2017-11-12T10:56:23.508Z,90.00
2017-11-12T10:57:23.454Z,90.00
2017-11-12T10:58:23.415Z,112.50
2017-11-12T10:59:23.366Z,90.00
2017-11-12T11:00:23.427Z,90.00
2017-11-12T11:01:23.453Z,112.50
2017-11-12T11:02:23.465Z,90.00
2017-11-12T11:03:23.367Z,112.50
2017-11-12T11:04:23.362Z,90.00
2017-11-12T11:05:23.361Z,90.00
2017-11-12T11:06:23.466Z,90.00
2017-11-12T11:07:23.376Z,67.50
2017-11-12T11:08:23.545Z,90.00
2017-11-12T11:09:23.546Z,90.00
2017-11-12T11:10:23.480Z,90.00
2017-11-12T11:11:23.428Z,90.00
2017-11-12T11:12:23.478Z,90.00
2017-11-12T11:13:23.551Z,90.00
2017-11-12T11:14:23.548Z,90.00
2017-11-12T11:15:23.553Z,112.50
2017-11-12T11:16:23.502Z,90.00
2017-11-12T11:17:23.549Z,90.00
2017-11-12T11:18:23.484Z,67.50
2017-11-12T11:19:23.555Z,67.50
2017-11-12T11:20:23.484Z,157.50
2017-11-12T11:21:23.556Z,90.00
2017-11-12T11:22:23.495Z,135.00
2017-11-12T11:23:23.556Z,90.00
2017-11-12T11:24:23.487Z,90.00
2017-11-12T11:25:23.557Z,157.50
2017-11-12T11:26:23.512Z,90.00
2017-11-12T11:27:23.571Z,90.00
2017-11-12T11:28:23.503Z,90.00
2017-11-12T11:29:23.545Z,90.00
2017-11-12T11:30:23.560Z,90.00
2017-11-12T11:31:23.521Z,90.00
2017-11-12T11:32:23.487Z,67.50
2017-11-12T11:33:23.476Z,135.00
2017-11-12T11:34:23.557Z,90.00
2017-11-12T11:35:23.561Z,90.00
2017-11-12T11:36:23.560Z,90.00
2017-11-12T11:37:23.441Z,90.00
2017-11-12T11:38:23.563Z,90.00
2017-11-12T11:39:23.495Z,90.00
2017-11-12T11:40:23.564Z,90.00
2017-11-12T11:41:23.495Z,67.50
2017-11-12T11:42:23.567Z,90.00
2017-11-12T11:43:23.540Z,90.00
2017-11-12T11:44:23.498Z,90.00
2017-11-12T11:45:23.568Z,90.00
2017-11-12T11:46:23.500Z,112.50
2017-11-12T11:47:23.571Z,90.00
2017-11-12T11:48:23.498Z,90.00
2017-11-12T11:49:23.569Z,90.00
2017-11-12T11:50:23.505Z,67.50
2017-11-12T11:51:23.574Z,112.50
2017-11-12T11:52:23.503Z,90.00
2017-11-12T11:53:23.575Z,90.00
2017-11-12T11:54:23.512Z,90.00
2017-11-12T11:55:23.574Z,90.00
2017-11-12T11:56:23.587Z,90.00
2017-11-12T11:57:23.508Z,90.00
2017-11-12T11:58:23.578Z,67.50
2017-11-12T11:59:23.505Z,67.50
2017-11-12T12:00:23.576Z,112.50
2017-11-12T12:01:23.579Z,135.00
2017-11-12T12:02:23.512Z,135.00
2017-11-12T12:03:23.507Z,112.50
2017-11-12T12:04:23.579Z,135.00
2017-11-12T12:05:23.512Z,112.50
2017-11-12T12:06:23.515Z,112.50
2017-11-12T12:07:23.581Z,112.50
2017-11-12T12:08:23.570Z,90.00
2017-11-12T12:09:23.466Z,112.50
2017-11-12T12:10:23.587Z,90.00
2017-11-12T12:11:23.569Z,90.00
2017-11-12T12:12:23.512Z,112.50
2017-11-12T12:13:23.506Z,90.00
2017-11-12T12:14:23.509Z,112.50
2017-11-12T12:15:23.488Z,112.50
2017-11-12T12:16:23.553Z,112.50
2017-11-12T12:17:23.489Z,90.00
2017-11-12T12:18:23.467Z,112.50
2017-11-12T12:19:23.569Z,90.00
2017-11-12T12:20:23.552Z,67.50
2017-11-12T12:21:23.457Z,112.50
2017-11-12T12:22:23.443Z,112.50
2017-11-12T12:23:23.519Z,157.50
2017-11-12T12:24:23.441Z,180.00
2017-11-12T12:25:23.554Z,112.50
2017-11-12T12:26:23.454Z,90.00
2017-11-12T12:27:23.449Z,90.00
2017-11-12T12:28:23.593Z,112.50
2017-11-12T12:29:23.521Z,112.50
2017-11-12T12:30:23.528Z,112.50
2017-11-12T12:31:23.605Z,112.50
2017-11-12T12:32:23.524Z,112.50
2017-11-12T12:33:23.598Z,135.00
2017-11-12T12:34:23.532Z,157.50
2017-11-12T12:35:23.603Z,135.00
2017-11-12T12:36:23.532Z,157.50
2017-11-12T12:37:23.529Z,135.00
2017-11-12T12:38:23.602Z,112.50
2017-11-12T12:39:23.527Z,135.00
2017-11-12T12:40:23.604Z,135.00
2017-11-12T12:41:23.603Z,135.00
2017-11-12T12:42:23.534Z,135.00